createdAt,value
2023-02-08T00:00:41.973Z,61.20
2023-02-08T00:03:15.833Z,61.54
2023-02-08T00:05:48.754Z,61.39
2023-02-08T00:08:16.116Z,60.99
2023-02-08T00:10:49.744Z,61.53
2023-02-08T00:13:16.614Z,61.94
2023-02-08T00:15:45.279Z,61.80
2023-02-08T00:18:18.714Z,62.00
2023-02-08T00:20:45.694Z,62.56
2023-02-08T00:23:19.811Z,62.98
2023-02-08T00:25:46.610Z,62.78
2023-02-08T00:28:21.816Z,62.58
2023-02-08T00:30:49.074Z,63.83
2023-02-08T00:33:21.854Z,63.39
2023-02-08T00:36:02.409Z,62.95
2023-02-08T00:38:35.767Z,62.81
2023-02-08T00:41:02.545Z,63.07
2023-02-08T00:43:35.833Z,63.38
2023-02-08T00:46:02.483Z,62.79
2023-02-08T00:48:35.765Z,63.02
2023-02-08T00:51:13.627Z,64.02
2023-02-08T00:53:50.798Z,62.49
2023-02-08T00:56:17.597Z,61.94
2023-02-08T00:58:44.602Z,62.14
2023-02-08T01:01:18.841Z,62.12
2023-02-08T01:03:45.533Z,61.72
2023-02-08T01:06:23.753Z,62.38
2023-02-08T01:08:50.279Z,62.65
2023-02-08T01:11:28.738Z,62.91
2023-02-08T01:14:05.798Z,64.16
2023-02-08T01:16:40.826Z,63.56
2023-02-08T01:19:07.523Z,63.20
2023-02-08T01:21:43.762Z,64.14
2023-02-08T01:24:11.300Z,64.29
2023-02-08T01:26:44.864Z,64.81
2023-02-08T01:29:11.694Z,64.40
2023-02-08T01:31:40.639Z,64.46
2023-02-08T01:34:15.798Z,64.00
2023-02-08T01:36:48.802Z,64.47
2023-02-08T01:39:15.337Z,63.85
2023-02-08T01:41:44.448Z,64.90
2023-02-08T01:44:20.814Z,64.95
2023-02-08T01:46:51.167Z,64.96
2023-02-08T01:49:35.790Z,65.14
2023-02-08T01:52:08.224Z,65.52
2023-02-08T01:54:51.764Z,65.90
2023-02-08T01:57:20.381Z,65.97
2023-02-08T02:00:07.810Z,65.97
2023-02-08T02:02:36.961Z,65.45
2023-02-08T02:05:10.816Z,65.44
2023-02-08T02:07:38.409Z,65.76
2023-02-08T02:10:26.833Z,66.44
2023-02-08T02:12:56.954Z,66.57
2023-02-08T02:15:30.768Z,66.53
2023-02-08T02:18:03.755Z,66.67
2023-02-08T02:21:10.827Z,66.60
2023-02-08T02:23:56.190Z,66.72
2023-02-08T02:26:59.779Z,65.78
2023-02-08T02:29:38.425Z,66.25
2023-02-08T02:32:32.849Z,66.45
2023-02-08T02:35:37.839Z,65.75
2023-02-08T02:38:17.825Z,65.05
2023-02-08T02:40:53.077Z,65.84
2023-02-08T02:43:58.777Z,66.21
2023-02-08T02:46:30.080Z,66.82
2023-02-08T02:49:15.786Z,67.42
2023-02-08T02:52:11.409Z,67.49
2023-02-08T02:54:53.835Z,67.27
2023-02-08T02:57:27.902Z,67.89
2023-02-08T03:00:01.824Z,67.72
2023-02-08T03:02:29.066Z,67.26
2023-02-08T03:05:03.790Z,67.88
2023-02-08T03:07:54.941Z,67.54
2023-02-08T03:10:53.817Z,68.22
2023-02-08T03:13:39.834Z,68.19
2023-02-08T03:16:18.170Z,68.17
2023-02-08T03:19:02.839Z,68.71
2023-02-08T03:21:52.787Z,68.54
2023-02-08T03:24:29.249Z,68.73
2023-02-08T03:27:12.867Z,69.10
2023-02-08T03:29:54.486Z,68.82
2023-02-08T03:32:33.886Z,69.12
2023-02-08T03:35:31.786Z,68.83
2023-02-08T03:38:13.843Z,69.51
2023-02-08T03:40:44.513Z,70.03
2023-02-08T03:43:30.797Z,69.64
2023-02-08T03:46:08.146Z,69.63
2023-02-08T03:48:43.858Z,69.70
2023-02-08T03:51:10.586Z,69.87
2023-02-08T03:53:40.610Z,70.06
2023-02-08T03:56:20.889Z,70.28
2023-02-08T03:59:00.832Z,69.50
2023-02-08T04:01:32.591Z,69.68
2023-02-08T04:04:08.038Z,71.49
2023-02-08T04:06:41.850Z,70.95
2023-02-08T04:09:14.845Z,70.79
2023-02-08T04:11:47.848Z,70.91
2023-02-08T04:14:14.434Z,69.88
2023-02-08T04:16:47.836Z,70.23
2023-02-08T04:19:14.467Z,72.09
2023-02-08T04:21:47.870Z,71.66
2023-02-08T04:24:14.841Z,71.36
2023-02-08T04:26:47.837Z,71.68
2023-02-08T04:29:21.869Z,71.55
2023-02-08T04:31:54.873Z,71.55
2023-02-08T04:34:41.859Z,71.57
2023-02-08T04:37:15.835Z,71.74
2023-02-08T04:39:42.553Z,71.95
2023-02-08T04:42:15.871Z,71.84
2023-02-08T04:44:48.893Z,71.60
2023-02-08T04:47:15.621Z,71.18
2023-02-08T04:49:48.822Z,71.92
2023-02-08T04:52:15.473Z,71.81
2023-02-08T04:54:48.865Z,72.04
2023-02-08T04:57:21.923Z,72.05
2023-02-08T04:59:54.924Z,71.64
2023-02-08T05:02:21.545Z,71.54
2023-02-08T05:04:54.947Z,71.52
2023-02-08T05:07:21.705Z,71.86
2023-02-08T05:09:54.834Z,71.84
2023-02-08T05:12:21.424Z,71.81
2023-02-08T05:14:47.943Z,71.09
2023-02-08T05:17:20.891Z,70.72
2023-02-08T05:19:47.632Z,70.54
2023-02-08T05:22:20.812Z,70.77
2023-02-08T05:24:47.795Z,70.85
2023-02-08T05:27:20.834Z,71.09
2023-02-08T05:29:47.474Z,71.34
2023-02-08T05:32:14.172Z,71.69
2023-02-08T05:34:46.875Z,72.04
2023-02-08T05:37:20.177Z,71.74
2023-02-08T05:39:53.872Z,71.53
2023-02-08T05:42:26.905Z,71.54
2023-02-08T05:44:59.850Z,71.04
2023-02-08T05:47:32.876Z,71.19
2023-02-08T05:50:13.074Z,71.11
2023-02-08T05:52:39.736Z,70.88
2023-02-08T05:55:13.900Z,71.18
2023-02-08T05:57:40.455Z,71.27
2023-02-08T06:00:13.890Z,71.32
2023-02-08T06:02:40.539Z,71.01
2023-02-08T06:05:13.872Z,71.39
2023-02-08T06:07:40.384Z,71.56
2023-02-08T06:10:13.959Z,71.89
2023-02-08T06:12:40.480Z,72.01
2023-02-08T06:15:07.424Z,72.07
2023-02-08T06:17:40.897Z,72.13
2023-02-08T06:20:07.942Z,72.02
2023-02-08T06:22:41.840Z,72.35
2023-02-08T06:25:08.586Z,72.55
2023-02-08T06:27:41.840Z,72.16
2023-02-08T06:30:08.985Z,72.44
2023-02-08T06:32:41.887Z,72.10
2023-02-08T06:35:14.948Z,72.17
2023-02-08T06:37:54.929Z,71.72
2023-02-08T06:40:21.532Z,72.16
2023-02-08T06:42:54.907Z,71.87
2023-02-08T06:45:21.380Z,71.69
2023-02-08T06:47:54.818Z,72.14
2023-02-08T06:50:23.983Z,72.32
2023-02-08T06:52:56.915Z,71.68
2023-02-08T06:55:29.885Z,71.88
2023-02-08T06:57:56.556Z,71.51
2023-02-08T07:00:29.880Z,71.79
2023-02-08T07:02:56.397Z,72.20
2023-02-08T07:05:29.846Z,72.43
2023-02-08T07:07:56.439Z,72.36
2023-02-08T07:10:29.863Z,72.32
2023-02-08T07:12:56.494Z,72.45
2023-02-08T07:15:29.833Z,72.48
2023-02-08T07:17:56.752Z,72.74
2023-02-08T07:20:23.539Z,72.72
2023-02-08T07:22:56.879Z,72.41
2023-02-08T07:25:29.899Z,72.52
2023-02-08T07:28:03.005Z,72.71
2023-02-08T07:30:35.967Z,72.56
2023-02-08T07:33:02.579Z,72.65
2023-02-08T07:35:35.879Z,72.63
2023-02-08T07:38:15.941Z,72.70
2023-02-08T07:40:48.921Z,72.60
2023-02-08T07:43:21.887Z,72.45
2023-02-08T07:45:48.474Z,72.51
2023-02-08T07:48:15.003Z,72.85
2023-02-08T07:50:47.846Z,73.15
2023-02-08T07:53:14.515Z,73.36
2023-02-08T07:55:47.912Z,73.60
2023-02-08T07:58:14.564Z,73.82
2023-02-08T08:00:47.932Z,73.88
2023-02-08T08:03:20.931Z,73.30
2023-02-08T08:05:55.029Z,72.28
2023-02-08T08:08:21.719Z,72.30
2023-02-08T08:10:55.970Z,72.69
2023-02-08T08:13:28.967Z,72.81
2023-02-08T08:15:55.529Z,72.46
2023-02-08T08:18:28.913Z,72.58
2023-02-08T08:20:55.427Z,72.79
2023-02-08T08:23:28.879Z,72.47
2023-02-08T08:25:55.808Z,72.31
2023-02-08T08:28:29.012Z,72.59
2023-02-08T08:30:57.577Z,72.10
2023-02-08T08:33:30.914Z,72.21
2023-02-08T08:36:04.502Z,72.22
2023-02-08T08:38:37.949Z,72.20
2023-02-08T08:41:17.994Z,73.00
2023-02-08T08:43:51.921Z,71.61
2023-02-08T08:46:18.936Z,71.05
2023-02-08T08:48:52.924Z,70.82
2023-02-08T08:51:32.897Z,70.16
2023-02-08T08:54:05.995Z,69.99
2023-02-08T08:56:32.941Z,69.66
2023-02-08T08:58:59.997Z,69.47
2023-02-08T09:01:34.777Z,69.44
2023-02-08T09:04:01.467Z,68.91
2023-02-08T09:06:34.936Z,68.33
2023-02-08T09:09:02.062Z,67.58
2023-02-08T09:11:34.944Z,67.25
2023-02-08T09:14:05.696Z,66.94
2023-02-08T09:16:38.892Z,66.68
2023-02-08T09:19:07.411Z,65.31
2023-02-08T09:21:40.939Z,64.50
2023-02-08T09:24:13.942Z,63.59
2023-02-08T09:26:40.472Z,62.71
2023-02-08T09:29:28.908Z,62.43
2023-02-08T09:32:10.490Z,62.19
2023-02-08T09:34:57.884Z,62.70
2023-02-08T09:37:30.931Z,61.50
2023-02-08T09:40:00.256Z,60.78
2023-02-08T09:42:29.782Z,61.14
2023-02-08T09:45:27.926Z,58.11
2023-02-08T09:48:14.712Z,56.99
2023-02-08T09:50:59.920Z,52.81
2023-02-08T09:54:08.965Z,51.61
2023-02-08T09:56:46.947Z,51.94
2023-02-08T09:59:27.975Z,50.44
2023-02-08T10:02:01.558Z,51.32
2023-02-08T10:04:49.987Z,49.74
2023-02-08T10:07:22.932Z,45.75
2023-02-08T10:09:55.983Z,46.01
2023-02-08T10:12:43.950Z,47.11
2023-02-08T10:15:16.066Z,49.27
2023-02-08T10:18:11.948Z,46.04
2023-02-08T10:20:45.126Z,45.82
2023-02-08T10:23:24.025Z,42.21
2023-02-08T10:26:08.971Z,42.06
2023-02-08T10:28:54.966Z,41.75
2023-02-08T10:31:59.008Z,39.19
2023-02-08T10:34:43.939Z,36.93
2023-02-08T10:37:25.996Z,38.28
2023-02-08T10:39:58.963Z,39.27
2023-02-08T10:42:28.852Z,38.49
2023-02-08T10:45:24.191Z,35.42
2023-02-08T10:47:56.800Z,33.61
2023-02-08T10:50:39.960Z,35.60
2023-02-08T10:53:12.979Z,36.01
2023-02-08T10:55:42.781Z,35.67
2023-02-08T10:58:21.953Z,34.75
2023-02-08T11:00:58.024Z,35.00
2023-02-08T11:03:27.391Z,34.61
2023-02-08T11:06:01.013Z,34.87
2023-02-08T11:08:28.893Z,35.01
2023-02-08T11:11:14.019Z,33.54
2023-02-08T11:13:48.254Z,33.59
2023-02-08T11:16:29.990Z,32.84
2023-02-08T11:19:02.207Z,31.91
2023-02-08T11:21:39.954Z,31.17
2023-02-08T11:24:15.565Z,28.40
2023-02-08T11:26:49.966Z,30.33
2023-02-08T11:29:29.258Z,27.32
2023-02-08T11:32:02.169Z,26.71
2023-02-08T11:34:39.300Z,27.21
2023-02-08T11:37:30.014Z,27.37
2023-02-08T11:39:59.227Z,28.59
2023-02-08T11:42:43.050Z,27.86
2023-02-08T11:45:21.151Z,27.87
2023-02-08T11:47:54.974Z,27.41
2023-02-08T11:50:36.983Z,28.65
2023-02-08T11:53:08.325Z,28.46
2023-02-08T11:55:42.210Z,29.31
2023-02-08T11:58:18.061Z,25.72
2023-02-08T12:01:02.453Z,27.30
2023-02-08T12:03:44.042Z,25.02
2023-02-08T12:06:45.079Z,24.83
2023-02-08T12:09:30.948Z,25.60
2023-02-08T12:12:17.739Z,25.50
2023-02-08T12:15:02.986Z,26.50
2023-02-08T12:17:46.858Z,24.55
2023-02-08T12:20:30.036Z,25.05
2023-02-08T12:23:30.748Z,24.16
2023-02-08T12:26:26.062Z,24.38
2023-02-08T12:28:55.646Z,24.11
2023-02-08T12:31:56.078Z,24.76
2023-02-08T12:34:53.165Z,23.97
2023-02-08T12:38:11.086Z,24.14
2023-02-08T12:41:02.048Z,22.65
2023-02-08T12:43:35.008Z,23.24
2023-02-08T12:46:26.074Z,22.20
2023-02-08T12:49:11.137Z,19.30
2023-02-08T12:51:56.860Z,21.47
2023-02-08T12:54:39.006Z,21.89
2023-02-08T12:57:14.060Z,21.37
2023-02-08T12:59:53.029Z,20.51
2023-02-08T13:02:32.032Z,20.58
2023-02-08T13:05:04.527Z,20.41
2023-02-08T13:07:48.064Z,19.88
2023-02-08T13:10:36.069Z,20.87
2023-02-08T13:13:33.035Z,21.90
2023-02-08T13:16:22.773Z,22.50
2023-02-08T13:19:40.588Z,23.58
2023-02-08T13:22:12.656Z,20.93
2023-02-08T13:24:55.266Z,20.35
2023-02-08T13:27:34.122Z,20.86
2023-02-08T13:30:01.396Z,20.56
2023-02-08T13:32:49.024Z,20.63
2023-02-08T13:35:31.168Z,21.09
2023-02-08T13:38:14.068Z,20.23
2023-02-08T13:40:42.145Z,20.39
2023-02-08T13:43:38.314Z,20.83
2023-02-08T13:46:07.101Z,20.50
2023-02-08T13:48:54.098Z,21.64
2023-02-08T13:51:33.025Z,19.03
2023-02-08T13:54:09.362Z,20.75
2023-02-08T13:56:50.263Z,19.76
2023-02-08T13:59:42.026Z,19.70
2023-02-08T14:02:11.461Z,20.46
2023-02-08T14:04:56.097Z,19.67
2023-02-08T14:07:37.441Z,20.02
2023-02-08T14:10:16.158Z,19.91
2023-02-08T14:12:49.348Z,19.67
2023-02-08T14:15:22.066Z,20.15
2023-02-08T14:17:51.166Z,20.88
2023-02-08T14:20:31.075Z,20.41
2023-02-08T14:23:08.125Z,20.88
2023-02-08T14:25:51.058Z,20.40
2023-02-08T14:28:34.082Z,21.26
2023-02-08T14:31:12.223Z,21.36
2023-02-08T14:33:49.075Z,19.76
2023-02-08T14:36:30.576Z,20.19
2023-02-08T14:39:33.055Z,20.07
2023-02-08T14:42:03.948Z,20.54
2023-02-08T14:44:48.066Z,20.43
2023-02-08T14:47:26.968Z,22.15
2023-02-08T14:50:23.064Z,21.10
2023-02-08T14:52:57.954Z,22.82
2023-02-08T14:55:34.060Z,21.33
2023-02-08T14:58:09.113Z,22.14
2023-02-08T15:00:45.118Z,22.69
2023-02-08T15:03:16.364Z,22.98
2023-02-08T15:06:25.085Z,22.88
2023-02-08T15:09:02.111Z,24.36
2023-02-08T15:11:39.074Z,23.45
2023-02-08T15:14:13.141Z,22.62
2023-02-08T15:16:44.176Z,24.57
2023-02-08T15:19:33.132Z,24.34
2023-02-08T15:22:31.170Z,23.88
2023-02-08T15:25:27.070Z,24.01
2023-02-08T15:27:59.836Z,24.64
2023-02-08T15:30:45.421Z,24.20
2023-02-08T15:33:19.747Z,25.29
2023-02-08T15:36:09.074Z,25.39
2023-02-08T15:38:38.798Z,25.52
2023-02-08T15:41:21.114Z,24.43
2023-02-08T15:43:47.634Z,24.84
2023-02-08T15:46:30.118Z,25.21
2023-02-08T15:48:57.525Z,25.51
2023-02-08T15:51:31.190Z,24.95
2023-02-08T15:54:04.122Z,24.82
2023-02-08T15:56:38.015Z,24.75
2023-02-08T15:59:21.109Z,24.62
2023-02-08T16:01:48.079Z,24.45
2023-02-08T16:04:21.101Z,25.18
2023-02-08T16:06:52.169Z,24.76
2023-02-08T16:09:35.104Z,25.94
2023-02-08T16:12:01.763Z,25.82
2023-02-08T16:14:51.679Z,25.61
2023-02-08T16:17:36.451Z,25.30
2023-02-08T16:20:34.369Z,25.50
2023-02-08T16:23:34.657Z,25.93
2023-02-08T16:26:26.483Z,27.36
2023-02-08T16:29:04.408Z,27.93
2023-02-08T16:31:39.198Z,28.24
2023-02-08T16:34:20.118Z,28.80
2023-02-08T16:36:57.155Z,28.80
2023-02-08T16:39:43.128Z,28.84
2023-02-08T16:42:31.090Z,29.40
2023-02-08T16:45:13.134Z,29.83
2023-02-08T16:47:54.118Z,31.61
2023-02-08T16:50:25.678Z,32.38
2023-02-08T16:53:07.182Z,33.01
2023-02-08T16:55:43.184Z,33.45
2023-02-08T16:58:23.610Z,24.20
2023-02-08T17:00:51.519Z,17.83
2023-02-08T17:03:25.366Z,13.68
2023-02-08T17:05:59.130Z,11.45
2023-02-08T17:08:26.606Z,9.75
2023-02-08T17:11:05.203Z,8.91
2023-02-08T17:13:31.863Z,8.22
2023-02-08T17:16:07.233Z,10.02
2023-02-08T17:18:35.065Z,14.31
2023-02-08T17:21:09.135Z,14.10
2023-02-08T17:23:42.208Z,11.59
2023-02-08T17:26:39.241Z,8.59
2023-02-08T17:29:06.373Z,7.50
2023-02-08T17:31:39.178Z,6.88
2023-02-08T17:34:05.864Z,6.13
2023-02-08T17:36:46.183Z,5.59
2023-02-08T17:39:12.919Z,6.01
2023-02-08T17:41:47.160Z,6.15
2023-02-08T17:44:15.213Z,6.30
2023-02-08T17:46:49.164Z,7.60
2023-02-08T17:49:16.372Z,7.71
2023-02-08T17:51:49.201Z,6.91
2023-02-08T17:54:22.166Z,7.05
2023-02-08T17:56:48.749Z,6.84
2023-02-08T17:59:22.156Z,6.81
2023-02-08T18:01:48.812Z,6.73
2023-02-08T18:04:22.133Z,6.83
2023-02-08T18:06:48.724Z,7.18
2023-02-08T18:09:22.209Z,7.65
2023-02-08T18:11:48.922Z,7.36
2023-02-08T18:14:22.185Z,7.25
2023-02-08T18:16:55.164Z,7.06
2023-02-08T18:19:22.503Z,6.63
2023-02-08T18:21:55.172Z,7.03
2023-02-08T18:24:21.748Z,6.60
2023-02-08T18:26:55.235Z,6.85
2023-02-08T18:29:21.860Z,7.83
2023-02-08T18:31:55.509Z,8.54
2023-02-08T18:34:28.227Z,7.42
2023-02-08T18:37:08.146Z,8.09
2023-02-08T18:39:34.942Z,8.26
2023-02-08T18:42:08.233Z,7.99
2023-02-08T18:44:43.152Z,8.05
2023-02-08T18:47:10.848Z,8.11
2023-02-08T18:49:47.210Z,8.74
2023-02-08T18:52:16.017Z,8.73
2023-02-08T18:54:49.166Z,8.22
2023-02-08T18:57:16.017Z,8.13
2023-02-08T18:59:49.230Z,7.98
2023-02-08T19:02:21.231Z,8.42
2023-02-08T19:04:55.214Z,9.11
2023-02-08T19:07:22.024Z,9.69
2023-02-08T19:09:56.207Z,9.24
2023-02-08T19:12:29.250Z,8.97
2023-02-08T19:14:56.019Z,8.81
2023-02-08T19:17:29.204Z,9.36
2023-02-08T19:20:02.263Z,9.91
2023-02-08T19:22:35.248Z,10.47
2023-02-08T19:25:01.937Z,10.02
2023-02-08T19:27:36.203Z,9.79
2023-02-08T19:30:11.234Z,10.26
2023-02-08T19:32:44.165Z,10.95
2023-02-08T19:35:17.238Z,10.13
2023-02-08T19:37:58.197Z,10.66
2023-02-08T19:40:31.251Z,10.06
2023-02-08T19:42:57.894Z,9.68
2023-02-08T19:45:31.266Z,9.96
2023-02-08T19:47:57.942Z,10.08
2023-02-08T19:50:31.226Z,9.81
2023-02-08T19:52:57.809Z,9.71
2023-02-08T19:55:31.189Z,9.15
2023-02-08T19:57:57.694Z,9.17
2023-02-08T20:00:32.186Z,9.20
2023-02-08T20:02:58.779Z,9.16
2023-02-08T20:05:25.361Z,9.21
2023-02-08T20:07:58.319Z,9.06
2023-02-08T20:10:31.250Z,9.38
2023-02-08T20:12:57.917Z,9.82
2023-02-08T20:15:31.277Z,9.97
2023-02-08T20:18:02.211Z,10.00
2023-02-08T20:20:36.227Z,10.31
2023-02-08T20:23:20.866Z,10.43
2023-02-08T20:25:49.256Z,10.89
2023-02-08T20:28:22.339Z,11.60
2023-02-08T20:30:49.022Z,12.17
2023-02-08T20:33:22.194Z,12.17
2023-02-08T20:35:55.274Z,11.83
2023-02-08T20:38:28.222Z,12.28
2023-02-08T20:41:02.204Z,12.30
2023-02-08T20:43:35.235Z,12.44
2023-02-08T20:46:06.552Z,12.30
2023-02-08T20:48:40.218Z,11.77
2023-02-08T20:51:09.100Z,11.53
2023-02-08T20:53:44.242Z,11.25
2023-02-08T20:56:22.211Z,11.02
2023-02-08T20:58:49.391Z,10.77
2023-02-08T21:01:26.258Z,11.01
2023-02-08T21:04:01.236Z,10.86
2023-02-08T21:06:37.263Z,11.13
2023-02-08T21:09:08.693Z,11.01
2023-02-08T21:11:42.305Z,11.38
2023-02-08T21:14:13.696Z,12.35
2023-02-08T21:16:47.397Z,12.42
2023-02-08T21:19:15.514Z,12.19
2023-02-08T21:21:49.251Z,11.97
2023-02-08T21:24:22.211Z,12.71
2023-02-08T21:26:48.828Z,13.23
2023-02-08T21:29:22.222Z,13.28
2023-02-08T21:31:58.308Z,12.68
2023-02-08T21:34:25.036Z,12.41
2023-02-08T21:37:05.316Z,11.93
2023-02-08T21:39:47.262Z,12.37
2023-02-08T21:42:20.212Z,13.02
2023-02-08T21:44:46.791Z,13.73
2023-02-08T21:47:20.224Z,14.68
2023-02-08T21:50:12.282Z,14.11
2023-02-08T21:52:57.534Z,14.94
2023-02-08T21:55:30.247Z,15.54
2023-02-08T21:57:56.848Z,16.14
2023-02-08T22:00:30.327Z,16.60
2023-02-08T22:02:56.874Z,17.09
2023-02-08T22:05:30.223Z,17.11
2023-02-08T22:07:59.409Z,17.87
2023-02-08T22:10:36.293Z,18.74
2023-02-08T22:13:02.904Z,18.93
2023-02-08T22:15:37.340Z,20.28
2023-02-08T22:18:04.322Z,19.37
2023-02-08T22:20:38.304Z,19.94
2023-02-08T22:23:06.029Z,20.25
2023-02-08T22:25:39.265Z,20.30
2023-02-08T22:28:13.396Z,20.77
2023-02-08T22:30:40.322Z,20.89
2023-02-08T22:33:13.228Z,20.60
2023-02-08T22:35:46.427Z,19.77
2023-02-08T22:38:26.274Z,17.92
2023-02-08T22:40:52.936Z,18.81
2023-02-08T22:43:19.567Z,20.06
2023-02-08T22:46:02.292Z,23.16
2023-02-08T22:48:36.305Z,30.66
2023-02-08T22:51:12.613Z,34.76
2023-02-08T22:53:45.333Z,37.04
2023-02-08T22:56:14.966Z,37.86
2023-02-08T22:58:48.307Z,39.02
2023-02-08T23:01:17.028Z,39.49
2023-02-08T23:03:43.855Z,39.94
2023-02-08T23:06:21.307Z,40.34
2023-02-08T23:08:48.339Z,40.63
2023-02-08T23:11:22.373Z,40.45
2023-02-08T23:13:48.938Z,40.75
2023-02-08T23:16:24.308Z,41.06
2023-02-08T23:18:51.355Z,40.10
2023-02-08T23:21:26.358Z,41.58
2023-02-08T23:23:52.980Z,41.41
2023-02-08T23:26:20.966Z,42.25
2023-02-08T23:28:57.340Z,42.24
2023-02-08T23:31:30.406Z,42.27
2023-02-08T23:34:05.381Z,42.11
2023-02-08T23:36:45.294Z,41.77
2023-02-08T23:39:18.588Z,42.09
2023-02-08T23:41:51.344Z,41.78
2023-02-08T23:44:24.242Z,42.20
2023-02-08T23:46:50.835Z,42.25
2023-02-08T23:49:24.268Z,42.42
2023-02-08T23:51:53.269Z,41.90
2023-02-08T23:54:26.339Z,41.76
2023-02-08T23:56:53.163Z,42.44
2023-02-08T23:59:26.274Z,42.51
